createdAt,value
2023-11-19T00:00:53.570Z,2.03
2023-11-19T00:02:26.436Z,2.00
2023-11-19T00:03:59.051Z,2.47
2023-11-19T00:05:31.493Z,2.05
2023-11-19T00:07:05.964Z,1.98
2023-11-19T00:08:38.191Z,1.80
2023-11-19T00:10:15.282Z,1.98
2023-11-19T00:11:54.539Z,2.10
2023-11-19T00:13:27.549Z,2.00
2023-11-19T00:14:59.960Z,1.63
2023-11-19T00:16:35.066Z,1.90
2023-11-19T00:18:07.419Z,1.90
2023-11-19T00:19:39.737Z,1.83
2023-11-19T00:21:12.179Z,2.08
2023-11-19T00:24:20.184Z,2.10
2023-11-19T00:25:52.337Z,1.98
2023-11-19T00:34:01.683Z,2.03
2023-11-19T00:38:11.517Z,1.70
2023-11-19T00:39:45.172Z,1.77
2023-11-19T00:41:18.415Z,1.90
2023-11-19T00:42:50.809Z,1.77
2023-11-19T00:44:25.204Z,2.28
2023-11-19T00:45:57.437Z,2.20
2023-11-19T00:47:29.714Z,1.80
2023-11-19T00:49:02.641Z,2.03
2023-11-19T00:50:37.959Z,2.17
2023-11-19T00:52:10.771Z,1.98
2023-11-19T00:53:43.031Z,1.88
2023-11-19T00:55:15.268Z,1.70
2023-11-19T00:56:47.598Z,2.05
2023-11-19T00:58:19.855Z,1.88
2023-11-19T00:59:52.144Z,2.00
2023-11-19T01:01:24.605Z,2.10
2023-11-19T01:02:57.019Z,2.05
2023-11-19T01:04:29.644Z,2.13
2023-11-19T01:06:03.956Z,1.90
2023-11-19T01:07:36.149Z,1.80
2023-11-19T01:09:10.176Z,1.90
2023-11-19T01:10:42.369Z,2.08
2023-11-19T01:12:14.565Z,2.00
2023-11-19T01:13:46.796Z,1.90
2023-11-19T01:15:20.585Z,1.92
2023-11-19T01:16:53.033Z,2.33
2023-11-19T01:18:25.266Z,2.17
2023-11-19T01:19:57.592Z,2.05
2023-11-19T01:21:29.834Z,2.13
2023-11-19T01:23:02.155Z,1.95
2023-11-19T01:24:34.464Z,2.13
2023-11-19T01:26:06.986Z,2.10
2023-11-19T01:27:39.454Z,2.33
2023-11-19T01:29:11.693Z,1.98
2023-11-19T01:30:43.954Z,2.05
2023-11-19T01:32:16.176Z,2.13
2023-11-19T01:33:48.393Z,1.85
2023-11-19T01:35:20.792Z,1.90
2023-11-19T01:36:53.067Z,1.90
2023-11-19T01:38:25.249Z,2.40
2023-11-19T01:39:59.314Z,2.00
2023-11-19T01:41:37.309Z,1.80
2023-11-19T01:43:13.059Z,2.00
2023-11-19T01:44:57.317Z,1.90
2023-11-19T01:46:30.337Z,1.83
2023-11-19T01:48:08.040Z,2.13
2023-11-19T01:49:40.316Z,2.00
2023-11-19T01:51:14.251Z,1.88
2023-11-19T01:52:46.435Z,1.88
2023-11-19T01:54:18.688Z,2.22
2023-11-19T01:55:51.137Z,1.80
2023-11-19T01:57:24.310Z,2.15
2023-11-19T01:58:57.568Z,2.05
2023-11-19T02:00:30.024Z,1.80
2023-11-19T02:02:02.557Z,2.00
2023-11-19T02:03:35.915Z,2.13
2023-11-19T02:05:08.771Z,2.00
2023-11-19T02:06:42.450Z,2.30
2023-11-19T02:09:47.582Z,3.28
2023-11-19T02:11:19.810Z,3.28
2023-11-19T02:12:53.127Z,2.10
2023-11-19T02:14:27.250Z,2.42
2023-11-19T02:16:00.031Z,2.28
2023-11-19T02:17:41.743Z,2.55
2023-11-19T02:19:14.074Z,2.85
2023-11-19T02:20:50.863Z,2.70
2023-11-19T02:22:23.844Z,3.08
2023-11-19T02:24:08.661Z,2.72
2023-11-19T02:25:42.134Z,3.20
2023-11-19T02:27:21.991Z,2.60
2023-11-19T02:28:54.184Z,2.55
2023-11-19T02:30:30.179Z,3.40
2023-11-19T02:32:04.955Z,3.28
2023-11-19T02:33:39.178Z,3.33
2023-11-19T02:35:13.827Z,2.78
2023-11-19T02:36:45.985Z,2.58
2023-11-19T02:38:18.454Z,2.90
2023-11-19T02:39:50.708Z,2.20
2023-11-19T02:41:22.858Z,2.25
2023-11-19T02:42:57.211Z,2.55
2023-11-19T02:47:46.496Z,2.20
2023-11-19T02:49:18.831Z,2.30
2023-11-19T02:50:51.157Z,2.00
2023-11-19T02:52:23.423Z,2.33
2023-11-19T02:53:55.709Z,2.50
2023-11-19T02:55:29.819Z,2.47
2023-11-19T02:57:05.141Z,2.58
2023-11-19T02:58:37.251Z,2.28
2023-11-19T03:00:13.857Z,2.13
2023-11-19T03:01:51.701Z,2.25
2023-11-19T03:03:24.543Z,2.38
2023-11-19T03:04:57.596Z,2.25
2023-11-19T03:06:30.342Z,2.30
2023-11-19T03:08:02.920Z,2.30
2023-11-19T03:09:38.123Z,2.30
2023-11-19T03:11:13.286Z,2.55
2023-11-19T03:12:46.944Z,2.33
2023-11-19T03:14:19.998Z,2.72
2023-11-19T03:15:52.943Z,2.65
2023-11-19T03:17:25.867Z,2.42
2023-11-19T03:18:58.247Z,2.53
2023-11-19T03:20:31.756Z,2.38
2023-11-19T03:23:36.863Z,2.47
2023-11-19T03:25:10.173Z,2.65
2023-11-19T03:26:44.307Z,2.45
2023-11-19T03:28:16.446Z,2.65
2023-11-19T03:29:48.624Z,2.72
2023-11-19T03:31:21.733Z,2.75
2023-11-19T03:32:53.931Z,2.75
2023-11-19T03:34:26.116Z,2.70
2023-11-19T03:35:58.485Z,2.55
2023-11-19T03:37:30.786Z,2.47
2023-11-19T03:39:03.019Z,3.25
2023-11-19T03:40:35.226Z,2.88
2023-11-19T03:42:07.441Z,2.55
2023-11-19T03:43:40.015Z,2.80
2023-11-19T03:45:12.441Z,3.03
2023-11-19T03:46:44.720Z,2.67
2023-11-19T03:48:20.525Z,2.72
2023-11-19T03:49:53.403Z,3.00
2023-11-19T03:51:25.673Z,2.63
2023-11-19T03:52:58.364Z,3.22
2023-11-19T03:54:30.667Z,3.83
2023-11-19T03:56:02.982Z,2.97
2023-11-19T03:59:14.122Z,3.00
2023-11-19T04:00:46.444Z,3.22
2023-11-19T04:02:18.837Z,3.42
2023-11-19T04:03:51.634Z,2.78
2023-11-19T04:05:24.093Z,3.10
2023-11-19T04:06:56.463Z,3.25
2023-11-19T04:08:28.671Z,3.22
2023-11-19T04:10:01.085Z,2.65
2023-11-19T04:11:34.267Z,2.50
2023-11-19T04:13:06.537Z,2.17
2023-11-19T04:14:38.808Z,2.47
2023-11-19T04:16:11.212Z,2.55
2023-11-19T04:17:43.622Z,2.30
2023-11-19T04:19:15.863Z,2.28
2023-11-19T04:20:48.036Z,2.50
2023-11-19T04:22:20.510Z,2.35
2023-11-19T04:23:52.865Z,2.80
2023-11-19T04:25:27.826Z,2.72
2023-11-19T04:27:00.110Z,2.45
2023-11-19T04:28:32.680Z,2.70
2023-11-19T04:30:07.135Z,2.37
2023-11-19T04:31:39.575Z,2.92
2023-11-19T04:33:12.495Z,2.08
2023-11-19T04:34:44.905Z,2.40
2023-11-19T04:36:20.710Z,2.33
2023-11-19T04:37:52.899Z,2.75
2023-11-19T04:39:25.421Z,2.20
2023-11-19T04:40:58.842Z,2.28
2023-11-19T04:42:31.215Z,2.50
2023-11-19T04:44:03.754Z,2.47
2023-11-19T04:45:36.110Z,3.00
2023-11-19T04:47:08.404Z,2.97
2023-11-19T04:48:42.310Z,3.10
2023-11-19T04:50:14.813Z,2.72
2023-11-19T04:51:49.878Z,2.78
2023-11-19T04:53:22.135Z,2.67
2023-11-19T04:54:54.393Z,2.90
2023-11-19T04:56:27.571Z,2.75
2023-11-19T04:57:59.949Z,2.70
2023-11-19T04:59:32.177Z,2.75
2023-11-19T05:01:05.673Z,2.50
2023-11-19T05:04:10.668Z,2.60
2023-11-19T05:05:42.988Z,2.30
2023-11-19T05:07:15.268Z,2.70
2023-11-19T05:08:47.586Z,2.53
2023-11-19T05:10:19.828Z,2.70
2023-11-19T05:11:52.481Z,2.50
2023-11-19T05:13:24.933Z,2.40
2023-11-19T05:14:57.117Z,2.50
2023-11-19T05:16:29.424Z,2.92
2023-11-19T05:18:01.718Z,2.97
2023-11-19T05:19:33.977Z,3.05
2023-11-19T05:21:06.481Z,3.97
2023-11-19T05:22:38.889Z,2.30
2023-11-19T05:24:11.213Z,2.80
2023-11-19T05:25:43.512Z,2.85
2023-11-19T05:27:15.940Z,2.78
2023-11-19T05:28:48.505Z,2.35
2023-11-19T05:30:20.930Z,2.60
2023-11-19T05:31:53.336Z,2.40
2023-11-19T05:33:25.682Z,2.80
2023-11-19T05:34:58.015Z,2.13
2023-11-19T05:36:30.469Z,2.42
2023-11-19T05:38:04.069Z,2.80
2023-11-19T05:39:36.246Z,3.30
2023-11-19T05:41:08.894Z,2.55
2023-11-19T05:42:41.276Z,2.70
2023-11-19T05:44:13.479Z,2.60
2023-11-19T05:45:45.736Z,2.85
2023-11-19T05:47:18.367Z,2.78
2023-11-19T05:48:50.759Z,2.65
2023-11-19T05:50:23.001Z,2.70
2023-11-19T05:51:57.317Z,2.97
2023-11-19T05:53:29.603Z,3.20
2023-11-19T05:55:05.978Z,2.88
2023-11-19T05:56:38.437Z,2.78
2023-11-19T05:58:13.029Z,2.92
2023-11-19T05:59:45.372Z,3.00
2023-11-19T06:01:18.199Z,3.10
2023-11-19T06:02:50.424Z,3.35
2023-11-19T06:04:22.563Z,3.40
2023-11-19T06:05:56.071Z,3.55
2023-11-19T06:09:13.088Z,3.75
2023-11-19T06:10:52.053Z,2.90
2023-11-19T06:12:24.334Z,2.80
2023-11-19T06:13:56.579Z,2.78
2023-11-19T06:15:31.452Z,2.90
2023-11-19T06:17:06.476Z,3.00
2023-11-19T06:18:38.871Z,3.22
2023-11-19T06:20:13.498Z,2.92
2023-11-19T06:21:45.718Z,2.90
2023-11-19T06:23:18.097Z,2.90
2023-11-19T06:24:50.346Z,2.55
2023-11-19T06:26:23.723Z,3.03
2023-11-19T06:27:56.088Z,2.67
2023-11-19T06:29:28.716Z,2.97
2023-11-19T06:31:01.046Z,2.55
2023-11-19T06:32:34.276Z,2.67
2023-11-19T06:34:06.551Z,2.85
2023-11-19T06:35:38.898Z,2.33
2023-11-19T06:37:11.234Z,2.53
2023-11-19T06:38:44.111Z,2.50
2023-11-19T06:40:17.296Z,3.05
2023-11-19T06:41:49.606Z,4.07
2023-11-19T06:43:21.845Z,3.55
2023-11-19T06:44:54.086Z,3.60
2023-11-19T06:46:26.351Z,3.83
2023-11-19T06:48:00.262Z,3.33
2023-11-19T06:49:32.624Z,4.05
2023-11-19T06:51:06.760Z,2.50
2023-11-19T06:52:39.282Z,4.15
2023-11-19T06:54:11.609Z,2.83
2023-11-19T06:55:43.962Z,2.72
2023-11-19T06:57:16.305Z,2.80
2023-11-19T06:58:49.784Z,3.15
2023-11-19T07:01:54.040Z,2.80
2023-11-19T07:03:26.542Z,2.75
2023-11-19T07:04:58.951Z,3.50
2023-11-19T07:08:08.896Z,2.75
2023-11-19T07:09:41.284Z,2.97
2023-11-19T07:11:15.521Z,3.00
2023-11-19T07:12:51.833Z,2.50
2023-11-19T07:14:25.065Z,2.58
2023-11-19T07:16:00.457Z,2.65
2023-11-19T07:17:33.169Z,2.85
2023-11-19T07:19:06.668Z,2.40
2023-11-19T07:20:39.639Z,2.90
2023-11-19T07:22:15.659Z,2.72
2023-11-19T07:23:48.451Z,3.35
2023-11-19T07:25:20.670Z,3.80
2023-11-19T07:26:53.523Z,2.85
2023-11-19T07:28:26.462Z,3.15
2023-11-19T07:29:59.327Z,3.22
2023-11-19T07:31:31.693Z,4.13
2023-11-19T07:33:05.450Z,2.97
2023-11-19T07:34:37.757Z,3.33
2023-11-19T07:36:11.346Z,3.17
2023-11-19T07:37:44.111Z,2.80
2023-11-19T07:39:16.460Z,3.60
2023-11-19T07:42:25.422Z,3.33
2023-11-19T07:43:57.807Z,3.80
2023-11-19T07:45:30.259Z,3.00
2023-11-19T07:47:02.568Z,3.38
2023-11-19T07:48:36.498Z,3.05
2023-11-19T07:50:09.182Z,2.92
2023-11-19T07:53:27.300Z,3.22
2023-11-19T07:54:59.568Z,3.72
2023-11-19T07:56:32.914Z,3.63
2023-11-19T07:58:05.237Z,2.70
2023-11-19T07:59:37.934Z,2.65
2023-11-19T08:01:10.952Z,3.08
2023-11-19T08:02:43.316Z,3.38
2023-11-19T08:04:15.690Z,3.75
2023-11-19T08:05:48.139Z,3.78
2023-11-19T08:07:26.277Z,3.85
2023-11-19T08:08:58.460Z,3.15
2023-11-19T08:10:31.040Z,4.28
2023-11-19T08:12:03.496Z,3.63
2023-11-19T08:13:35.748Z,3.45
2023-11-19T08:15:08.699Z,3.40
2023-11-19T08:16:41.762Z,3.45
2023-11-19T08:18:14.446Z,2.97
2023-11-19T08:19:46.799Z,3.15
2023-11-19T08:21:19.156Z,2.92
2023-11-19T08:22:51.526Z,3.55
2023-11-19T08:24:24.312Z,3.38
2023-11-19T08:25:57.114Z,3.90
2023-11-19T08:27:29.370Z,3.50
2023-11-19T08:29:01.674Z,3.72
2023-11-19T08:30:34.025Z,5.28
2023-11-19T08:32:08.034Z,4.80
2023-11-19T08:33:40.568Z,3.17
2023-11-19T08:35:12.905Z,3.10
2023-11-19T08:36:45.345Z,3.45
2023-11-19T08:38:31.363Z,3.17
2023-11-19T08:40:06.192Z,3.30
2023-11-19T08:41:39.759Z,3.47
2023-11-19T08:43:12.382Z,3.33
2023-11-19T08:44:49.894Z,3.13
2023-11-19T08:46:22.331Z,2.88
2023-11-19T08:47:57.917Z,3.00
2023-11-19T08:49:30.168Z,3.25
2023-11-19T08:51:02.332Z,3.20
2023-11-19T08:52:35.582Z,3.22
2023-11-19T08:55:40.274Z,3.17
2023-11-19T08:57:13.690Z,3.35
2023-11-19T08:58:45.999Z,3.10
2023-11-19T09:00:19.502Z,2.80
2023-11-19T09:03:24.141Z,3.00
2023-11-19T09:04:56.780Z,2.80
2023-11-19T09:06:29.211Z,2.80
2023-11-19T09:08:01.869Z,2.70
2023-11-19T09:09:37.418Z,2.50
2023-11-19T09:11:13.416Z,2.70
2023-11-19T09:12:45.642Z,2.50
2023-11-19T09:14:20.040Z,2.80
2023-11-19T09:15:52.326Z,3.10
2023-11-19T09:17:24.644Z,4.07
2023-11-19T09:18:56.879Z,3.85
2023-11-19T09:20:29.206Z,2.60
2023-11-19T09:22:01.472Z,3.85
2023-11-19T09:23:38.128Z,3.70
2023-11-19T09:25:10.994Z,2.95
2023-11-19T09:26:43.322Z,3.22
2023-11-19T09:28:16.044Z,3.10
2023-11-19T09:29:50.565Z,3.90
2023-11-19T09:31:22.804Z,4.00
2023-11-19T09:32:55.184Z,4.53
2023-11-19T09:34:27.541Z,3.23
2023-11-19T09:35:59.892Z,4.80
2023-11-19T09:37:32.279Z,3.72
2023-11-19T09:39:05.879Z,3.38
2023-11-19T09:40:40.321Z,4.53
2023-11-19T09:43:52.181Z,3.97
2023-11-19T09:45:28.555Z,3.08
2023-11-19T09:47:01.067Z,3.33
2023-11-19T09:48:41.523Z,3.92
2023-11-19T09:50:20.410Z,4.30
2023-11-19T09:51:52.976Z,4.32
2023-11-19T09:53:25.490Z,3.30
2023-11-19T09:54:57.771Z,3.60
2023-11-19T09:56:31.482Z,3.65
2023-11-19T09:58:03.964Z,3.40
2023-11-19T09:59:37.946Z,3.28
2023-11-19T10:02:49.013Z,2.80
2023-11-19T10:04:24.631Z,3.78
2023-11-19T10:06:00.585Z,3.13
2023-11-19T10:07:34.272Z,3.30
2023-11-19T10:09:06.883Z,2.80
2023-11-19T10:10:39.530Z,3.30
2023-11-19T10:13:49.521Z,3.05
2023-11-19T10:15:24.008Z,2.95
2023-11-19T10:16:57.515Z,2.83
2023-11-19T10:21:41.545Z,3.50
2023-11-19T10:24:51.876Z,3.00
2023-11-19T10:26:29.404Z,3.60
2023-11-19T10:28:02.220Z,3.30
2023-11-19T10:29:34.505Z,3.72
2023-11-19T10:31:07.437Z,3.33
2023-11-19T10:32:39.694Z,3.58
2023-11-19T10:34:28.031Z,4.15
2023-11-19T10:36:03.597Z,3.78
2023-11-19T10:37:39.385Z,3.47
2023-11-19T10:39:11.894Z,3.42
2023-11-19T10:40:44.701Z,3.58
2023-11-19T10:42:18.350Z,4.20
2023-11-19T10:43:51.193Z,3.63
2023-11-19T10:45:25.438Z,2.88
2023-11-19T10:48:34.164Z,3.30
2023-11-19T10:50:08.193Z,3.50
2023-11-19T10:51:47.598Z,2.90
2023-11-19T10:53:20.464Z,3.30
2023-11-19T10:54:55.540Z,3.17
2023-11-19T10:56:32.330Z,3.10
2023-11-19T10:58:07.622Z,3.63
2023-11-19T10:59:40.369Z,3.13
2023-11-19T11:01:20.343Z,2.97
2023-11-19T11:02:57.286Z,3.17
2023-11-19T11:04:33.110Z,2.92
2023-11-19T11:06:05.833Z,3.42
2023-11-19T11:07:41.502Z,3.20
2023-11-19T11:09:16.925Z,5.85
2023-11-19T11:11:01.628Z,4.03
2023-11-19T11:12:38.206Z,2.60
2023-11-19T11:14:13.427Z,4.22
2023-11-19T11:15:48.365Z,3.42
2023-11-19T11:17:21.326Z,3.35
2023-11-19T11:18:54.381Z,3.22
2023-11-19T11:20:27.296Z,3.20
2023-11-19T11:22:00.265Z,3.40
2023-11-19T11:24:07.165Z,3.08
2023-11-19T11:25:53.457Z,2.63
2023-11-19T11:27:50.385Z,3.30
2023-11-19T11:29:37.826Z,3.63
2023-11-19T11:31:50.189Z,3.00
2023-11-19T11:33:41.980Z,2.50
2023-11-19T11:35:29.096Z,2.92
2023-11-19T11:37:10.089Z,3.22
2023-11-19T11:38:43.326Z,2.90
2023-11-19T11:40:17.410Z,2.88
2023-11-19T11:42:18.562Z,2.92
2023-11-19T11:43:57.563Z,4.22
2023-11-19T11:45:41.133Z,3.47
2023-11-19T11:47:13.424Z,3.00
2023-11-19T11:48:48.695Z,3.00
2023-11-19T11:50:21.346Z,3.50
2023-11-19T11:52:00.219Z,3.40
2023-11-19T11:53:32.833Z,3.28
2023-11-19T11:55:10.757Z,3.23
2023-11-19T11:56:43.011Z,3.00
2023-11-19T11:58:15.993Z,2.75
2023-11-19T11:59:49.065Z,3.20
2023-11-19T12:01:22.383Z,2.92
2023-11-19T12:03:00.890Z,2.95
2023-11-19T12:04:33.704Z,3.00
2023-11-19T12:06:06.505Z,3.20
2023-11-19T12:07:41.068Z,3.00
2023-11-19T12:09:13.641Z,2.97
2023-11-19T12:10:53.684Z,2.83
2023-11-19T12:12:30.081Z,2.72
2023-11-19T12:14:04.302Z,2.67
2023-11-19T12:15:59.461Z,3.00
2023-11-19T12:17:34.944Z,3.03
2023-11-19T12:19:08.777Z,2.60
2023-11-19T12:20:41.468Z,3.08
2023-11-19T12:22:13.765Z,2.95
2023-11-19T12:23:47.529Z,2.92
2023-11-19T12:25:24.013Z,2.70
2023-11-19T12:26:58.339Z,3.42
2023-11-19T12:28:30.865Z,2.58
2023-11-19T12:30:06.601Z,3.27
2023-11-19T12:31:39.261Z,2.50
2023-11-19T12:33:12.525Z,2.58
2023-11-19T12:34:45.705Z,2.97
2023-11-19T12:36:19.647Z,3.10
2023-11-19T12:37:53.248Z,3.00
2023-11-19T12:39:25.535Z,2.50
2023-11-19T12:41:08.412Z,2.65
2023-11-19T12:42:40.958Z,3.05
2023-11-19T12:44:13.923Z,3.27
2023-11-19T12:45:46.581Z,3.35
2023-11-19T12:47:19.478Z,3.05
2023-11-19T12:48:53.220Z,3.22
2023-11-19T12:50:26.031Z,2.72
2023-11-19T12:51:58.299Z,2.83
2023-11-19T12:53:30.756Z,2.92
2023-11-19T12:55:07.946Z,3.38
2023-11-19T12:56:40.349Z,3.15
2023-11-19T12:58:12.799Z,2.97
2023-11-19T12:59:45.085Z,2.85
2023-11-19T13:01:22.123Z,3.13
2023-11-19T13:02:58.547Z,2.65
2023-11-19T13:04:34.866Z,3.10
2023-11-19T13:06:17.878Z,3.15
2023-11-19T13:07:50.519Z,3.42
2023-11-19T13:09:27.334Z,3.00
2023-11-19T13:10:59.602Z,2.80
2023-11-19T13:12:31.855Z,3.00
2023-11-19T13:14:06.559Z,3.13
2023-11-19T13:15:39.440Z,2.70
2023-11-19T13:17:15.714Z,3.05
2023-11-19T13:18:48.686Z,3.08
2023-11-19T13:20:21.826Z,3.25
2023-11-19T13:21:54.534Z,3.00
2023-11-19T13:23:27.007Z,2.70
2023-11-19T13:24:59.560Z,3.33
2023-11-19T13:26:34.765Z,3.03
2023-11-19T13:28:07.639Z,3.20
2023-11-19T13:29:40.392Z,2.70
2023-11-19T13:31:13.128Z,3.25
2023-11-19T13:32:47.782Z,3.28
2023-11-19T13:34:20.494Z,2.65
2023-11-19T13:35:54.868Z,3.13
2023-11-19T13:37:27.223Z,2.80
2023-11-19T13:39:01.245Z,2.92
2023-11-19T13:40:34.508Z,2.80
2023-11-19T13:43:42.567Z,3.42
2023-11-19T13:45:16.617Z,3.10
2023-11-19T13:46:49.218Z,4.00
2023-11-19T13:48:21.577Z,4.07
2023-11-19T13:49:54.284Z,3.40
2023-11-19T13:51:27.008Z,4.78
2023-11-19T13:52:59.323Z,5.95
2023-11-19T13:54:32.504Z,3.22
2023-11-19T13:56:05.446Z,2.72
2023-11-19T13:57:41.579Z,4.22
2023-11-19T13:59:14.303Z,3.88
2023-11-19T14:00:46.974Z,2.58
2023-11-19T14:02:19.322Z,4.10
2023-11-19T14:03:52.162Z,3.30
2023-11-19T14:07:01.016Z,2.63
2023-11-19T14:08:33.866Z,2.90
2023-11-19T14:10:12.988Z,2.90
2023-11-19T14:11:45.535Z,2.92
2023-11-19T14:13:18.170Z,3.78
2023-11-19T14:14:51.013Z,3.83
2023-11-19T14:16:23.557Z,3.03
2023-11-19T14:17:55.809Z,3.17
2023-11-19T14:19:28.816Z,3.17
2023-11-19T14:21:01.718Z,3.22
2023-11-19T14:22:34.051Z,3.50
2023-11-19T14:24:07.171Z,4.20
2023-11-19T14:25:39.726Z,4.22
2023-11-19T14:27:12.583Z,5.60
2023-11-19T14:58:27.480Z,6.63
2023-11-19T14:59:59.862Z,6.72
2023-11-19T15:01:32.486Z,9.38
2023-11-19T15:03:08.248Z,9.15
2023-11-19T15:04:41.856Z,8.93
2023-11-19T15:06:14.190Z,8.63
2023-11-19T15:07:46.463Z,9.68
2023-11-19T15:09:19.327Z,9.65
2023-11-19T15:10:51.905Z,10.65
2023-11-19T15:12:24.788Z,11.00
2023-11-19T15:13:57.587Z,9.82
2023-11-19T15:17:05.049Z,10.43
2023-11-19T15:18:37.340Z,12.13
2023-11-19T15:20:10.171Z,11.43
2023-11-19T15:21:43.447Z,11.75
2023-11-19T15:23:16.922Z,12.50
2023-11-19T15:26:21.395Z,10.75
2023-11-19T15:27:53.631Z,13.30
2023-11-19T15:29:25.941Z,10.65
2023-11-19T15:30:58.193Z,10.15
2023-11-19T15:32:33.234Z,12.55
2023-11-19T15:34:05.568Z,10.77
2023-11-19T15:35:38.047Z,9.65
2023-11-19T15:37:10.418Z,8.38
2023-11-19T15:40:17.911Z,7.03
2023-11-19T15:41:50.264Z,6.00
2023-11-19T15:43:22.595Z,5.43
2023-11-19T15:44:54.951Z,4.97
2023-11-19T15:46:27.279Z,4.78
2023-11-19T15:47:59.950Z,5.20
2023-11-19T15:49:32.806Z,5.65
2023-11-19T15:51:05.630Z,4.75
2023-11-19T15:52:37.913Z,4.72
2023-11-19T15:54:10.190Z,4.75
2023-11-19T15:55:42.489Z,4.60
2023-11-19T15:57:15.005Z,5.07
2023-11-19T15:58:47.249Z,4.47
2023-11-19T16:00:22.828Z,4.63
2023-11-19T16:01:55.448Z,4.97
2023-11-19T16:03:28.241Z,4.93
2023-11-19T16:05:00.599Z,4.63
2023-11-19T16:06:33.669Z,5.15
2023-11-19T16:08:06.058Z,4.50
2023-11-19T16:09:39.525Z,4.93
2023-11-19T16:12:44.177Z,4.45
2023-11-19T16:14:16.487Z,4.53
2023-11-19T16:15:49.137Z,4.55
2023-11-19T16:17:22.429Z,4.53
2023-11-19T16:18:54.970Z,4.70
2023-11-19T16:20:27.963Z,4.22
2023-11-19T16:22:11.743Z,4.10
2023-11-19T16:23:46.714Z,5.20
2023-11-19T16:25:20.270Z,5.68
2023-11-19T16:26:52.813Z,5.10
2023-11-19T16:28:25.762Z,4.43
2023-11-19T16:29:58.004Z,4.63
2023-11-19T16:31:30.376Z,4.80
2023-11-19T16:33:02.811Z,4.38
2023-11-19T16:34:43.826Z,4.18
2023-11-19T16:36:16.655Z,4.50
2023-11-19T16:37:49.170Z,4.75
2023-11-19T16:39:21.730Z,5.55
2023-11-19T16:40:54.276Z,6.05
2023-11-19T16:42:27.471Z,5.30
2023-11-19T16:44:04.401Z,5.10
2023-11-19T16:45:36.833Z,4.63
2023-11-19T16:47:09.121Z,4.93
2023-11-19T16:48:41.412Z,4.60
2023-11-19T16:50:13.838Z,4.53
2023-11-19T16:51:49.612Z,4.22
2023-11-19T16:53:21.948Z,4.53
2023-11-19T16:54:57.721Z,4.50
2023-11-19T16:56:30.196Z,4.90
2023-11-19T16:58:03.709Z,4.55
2023-11-19T17:01:08.114Z,4.53
2023-11-19T17:04:19.045Z,4.72
2023-11-19T17:05:51.791Z,4.72
2023-11-19T17:07:26.856Z,4.93
2023-11-19T17:08:59.310Z,5.28
2023-11-19T17:10:31.656Z,4.82
2023-11-19T17:12:04.099Z,4.88
2023-11-19T17:13:37.043Z,4.47
2023-11-19T17:15:12.192Z,4.88
2023-11-19T17:16:44.737Z,5.28
2023-11-19T17:18:18.503Z,6.88
2023-11-19T17:19:51.433Z,5.47
2023-11-19T17:21:26.158Z,5.22
2023-11-19T17:22:58.754Z,5.18
2023-11-19T17:24:31.048Z,6.03
2023-11-19T17:26:03.579Z,25.40
2023-11-19T17:27:36.299Z,35.20
2023-11-19T17:29:08.667Z,30.37
2023-11-19T17:30:41.611Z,38.50
2023-11-19T17:32:14.039Z,21.42
2023-11-19T17:33:46.629Z,19.52
2023-11-19T17:35:19.537Z,21.80
2023-11-19T17:36:52.191Z,20.67
2023-11-19T17:38:27.889Z,22.70
2023-11-19T17:40:00.514Z,21.15
2023-11-19T17:41:33.185Z,18.02
2023-11-19T17:43:06.332Z,15.68
2023-11-19T17:44:42.037Z,12.75
2023-11-19T17:46:15.283Z,15.93
2023-11-19T17:47:47.866Z,14.45
2023-11-19T17:49:20.936Z,11.17
2023-11-19T17:50:57.036Z,11.88
2023-11-19T17:52:29.389Z,11.90
2023-11-19T17:54:01.653Z,8.18
2023-11-19T17:55:33.918Z,11.98
2023-11-19T17:57:06.830Z,11.10
2023-11-19T17:58:39.297Z,9.45
2023-11-19T18:00:14.989Z,9.38
2023-11-19T18:01:47.538Z,9.18
2023-11-19T18:03:21.241Z,8.77
2023-11-19T18:04:54.652Z,8.57
2023-11-19T18:06:26.915Z,9.57
2023-11-19T18:07:59.262Z,9.05
2023-11-19T18:09:31.850Z,9.40
2023-11-19T18:11:04.467Z,8.97
2023-11-19T18:12:37.811Z,8.73
2023-11-19T18:14:11.131Z,10.32
2023-11-19T18:15:43.791Z,12.77
2023-11-19T18:17:16.812Z,14.15
2023-11-19T18:18:49.283Z,11.23
2023-11-19T18:20:21.835Z,11.50
2023-11-19T18:21:54.079Z,12.30
2023-11-19T18:23:26.476Z,11.00
2023-11-19T18:25:00.215Z,11.02
2023-11-19T18:28:07.666Z,8.00
2023-11-19T18:29:41.684Z,7.25
2023-11-19T18:31:14.027Z,7.30
2023-11-19T18:32:46.887Z,7.70
2023-11-19T18:34:19.341Z,9.13
2023-11-19T18:35:52.426Z,8.70
2023-11-19T18:37:27.950Z,11.20
2023-11-19T18:39:00.541Z,14.23
2023-11-19T18:40:36.191Z,9.05
2023-11-19T18:42:08.411Z,11.63
2023-11-19T18:43:41.044Z,37.78
2023-11-19T18:45:13.402Z,13.52
2023-11-19T18:46:45.661Z,12.93
2023-11-19T18:48:17.913Z,9.82
2023-11-19T18:49:54.761Z,9.90
2023-11-19T18:51:27.974Z,8.80
2023-11-19T18:53:00.298Z,7.57
2023-11-19T18:54:33.522Z,9.00
2023-11-19T18:56:08.143Z,15.75
2023-11-19T18:57:41.260Z,13.93
2023-11-19T18:59:15.090Z,17.02
2023-11-19T19:00:47.411Z,12.45
2023-11-19T19:02:19.774Z,9.75
2023-11-19T19:03:52.268Z,11.38
2023-11-19T19:05:25.186Z,13.85
2023-11-19T19:06:58.222Z,13.88
2023-11-19T19:08:30.558Z,12.80
2023-11-19T19:10:03.974Z,6.13
2023-11-19T19:11:37.126Z,11.45
2023-11-19T19:13:09.848Z,12.43
2023-11-19T19:14:42.186Z,10.63
2023-11-19T19:16:15.172Z,11.48
2023-11-19T19:17:47.624Z,10.57
2023-11-19T19:19:19.998Z,14.32
2023-11-19T19:20:53.456Z,12.13
2023-11-19T19:23:57.977Z,9.98
2023-11-19T19:25:30.298Z,8.10
2023-11-19T19:27:02.513Z,7.22
2023-11-19T19:28:38.849Z,8.70
2023-11-19T19:30:11.715Z,8.43
2023-11-19T19:31:44.691Z,8.23
2023-11-19T19:33:17.214Z,8.60
2023-11-19T19:34:52.259Z,7.53
2023-11-19T19:36:33.305Z,7.70
2023-11-19T19:38:05.607Z,7.78
2023-11-19T19:39:40.269Z,6.80
2023-11-19T19:41:12.514Z,14.68
2023-11-19T19:42:44.841Z,14.40
2023-11-19T19:44:17.286Z,10.13
2023-11-19T19:45:49.631Z,8.82
2023-11-19T19:47:22.553Z,8.98
2023-11-19T19:48:55.352Z,10.85
2023-11-19T19:50:27.688Z,11.63
2023-11-19T19:52:00.010Z,6.60
2023-11-19T19:55:11.566Z,21.75
2023-11-19T19:56:43.810Z,24.23
2023-11-19T19:58:19.181Z,14.13
2023-11-19T19:59:51.523Z,9.43
2023-11-19T20:01:24.797Z,10.05
2023-11-19T20:02:57.407Z,8.02
2023-11-19T20:04:29.679Z,6.60
2023-11-19T20:06:13.045Z,6.57
2023-11-19T20:07:46.385Z,9.70
2023-11-19T20:09:18.757Z,15.70
2023-11-19T20:10:53.986Z,9.18
2023-11-19T20:12:31.565Z,8.50
2023-11-19T20:14:07.361Z,7.88
2023-11-19T20:15:40.001Z,9.32
2023-11-19T20:17:15.367Z,10.73
2023-11-19T20:18:47.641Z,10.50
2023-11-19T20:20:19.897Z,16.33
2023-11-19T20:21:52.198Z,19.30
2023-11-19T20:23:24.549Z,20.25
2023-11-19T20:24:57.156Z,14.88
2023-11-19T20:26:31.874Z,13.10
2023-11-19T20:28:04.196Z,13.65
2023-11-19T20:29:36.397Z,10.50
2023-11-19T20:31:08.720Z,8.00
2023-11-19T20:32:42.329Z,6.10
2023-11-19T20:34:14.598Z,10.25
2023-11-19T20:35:47.084Z,8.65
2023-11-19T20:37:19.629Z,8.65
2023-11-19T20:38:53.129Z,8.57
2023-11-19T20:41:57.416Z,7.93
2023-11-19T20:43:29.647Z,8.65
2023-11-19T20:45:02.925Z,8.27
2023-11-19T20:46:35.305Z,11.80
2023-11-19T20:48:07.603Z,8.88
2023-11-19T20:49:39.949Z,8.68
2023-11-19T20:51:12.283Z,10.32
2023-11-19T20:52:44.516Z,10.68
2023-11-19T20:54:16.934Z,9.10
2023-11-19T20:55:50.304Z,8.63
2023-11-19T20:57:22.577Z,9.50
2023-11-19T20:58:55.550Z,9.25
2023-11-19T21:00:27.999Z,10.23
2023-11-19T21:02:00.296Z,10.10
2023-11-19T21:03:32.707Z,10.07
2023-11-19T21:05:05.644Z,10.13
2023-11-19T21:08:14.353Z,10.23
2023-11-19T21:09:46.693Z,10.55
2023-11-19T21:11:19.184Z,9.15
2023-11-19T21:12:51.602Z,9.07
2023-11-19T21:14:23.947Z,8.73
2023-11-19T21:15:59.431Z,8.70
2023-11-19T21:17:32.910Z,8.93
2023-11-19T21:19:05.263Z,8.88
2023-11-19T21:20:37.618Z,8.65
2023-11-19T21:22:11.579Z,9.23
2023-11-19T21:23:43.806Z,8.82
2023-11-19T21:25:16.239Z,9.35
2023-11-19T21:26:48.588Z,8.77
2023-11-19T21:28:27.023Z,8.95
2023-11-19T21:30:00.597Z,8.18
2023-11-19T21:31:33.158Z,7.88
2023-11-19T21:33:26.939Z,7.43
2023-11-19T21:34:59.149Z,7.65
2023-11-19T21:36:31.389Z,7.57
2023-11-19T21:38:03.637Z,8.35
2023-11-19T21:39:35.878Z,7.38
2023-11-19T21:41:08.619Z,7.35
2023-11-19T21:42:40.925Z,7.75
2023-11-19T21:44:13.203Z,7.63
2023-11-19T21:45:48.945Z,7.82
2023-11-19T21:47:21.263Z,8.85
2023-11-19T21:48:53.506Z,10.82
2023-11-19T21:50:25.879Z,7.72
2023-11-19T21:51:58.161Z,8.70
2023-11-19T21:53:31.218Z,7.90
2023-11-19T21:55:04.941Z,7.78
2023-11-19T21:56:37.474Z,10.57
2023-11-19T21:58:10.094Z,11.70
2023-11-19T21:59:42.615Z,7.60
2023-11-19T22:01:17.919Z,13.50
2023-11-19T22:02:51.200Z,14.30
2023-11-19T22:04:23.911Z,12.25
2023-11-19T22:05:56.112Z,10.67
2023-11-19T22:07:28.441Z,11.43
2023-11-19T22:09:00.657Z,10.40
2023-11-19T22:10:32.821Z,10.27
2023-11-19T22:12:05.469Z,9.65
2023-11-19T22:13:39.433Z,9.00
2023-11-19T22:15:12.647Z,8.65